sensor_id;sensor_type;location;lat;lon;timestamp;P1;durP1;ratioP1;P2;durP2;ratioP2
45490;SDS011;31237;45.586;13.782;2022-10-16T00:01:19;4.35;;;2.70;;
45490;SDS011;31237;45.586;13.782;2022-10-16T00:03:47;3.08;;;2.80;;
45490;SDS011;31237;45.586;13.782;2022-10-16T00:06:14;1.88;;;1.73;;
45490;SDS011;31237;45.586;13.782;2022-10-16T00:08:41;1.02;;;1.02;;
45490;SDS011;31237;45.586;13.782;2022-10-16T00:11:11;3.35;;;2.13;;
45490;SDS011;31237;45.586;13.782;2022-10-16T00:13:40;1.75;;;1.65;;
45490;SDS011;31237;45.586;13.782;2022-10-16T00:16:07;2.17;;;2.05;;
45490;SDS011;31237;45.586;13.782;2022-10-16T00:18:34;1.80;;;1.70;;
45490;SDS011;31237;45.586;13.782;2022-10-16T00:21:11;1.95;;;1.73;;
45490;SDS011;31237;45.586;13.782;2022-10-16T00:23:38;5.65;;;2.15;;
45490;SDS011;31237;45.586;13.782;2022-10-16T00:26:05;1.40;;;1.30;;
45490;SDS011;31237;45.586;13.782;2022-10-16T00:28:33;2.28;;;2.05;;
45490;SDS011;31237;45.586;13.782;2022-10-16T00:31:02;1.48;;;1.38;;
45490;SDS011;31237;45.586;13.782;2022-10-16T00:33:33;2.80;;;1.70;;
45490;SDS011;31237;45.586;13.782;2022-10-16T00:35:59;5.38;;;2.53;;
45490;SDS011;31237;45.586;13.782;2022-10-16T00:38:26;1.70;;;1.48;;
45490;SDS011;31237;45.586;13.782;2022-10-16T00:40:51;1.73;;;1.63;;
45490;SDS011;31237;45.586;13.782;2022-10-16T00:48:50;1.42;;;1.33;;
45490;SDS011;31237;45.586;13.782;2022-10-16T00:51:30;2.13;;;1.83;;
45490;SDS011;31237;45.586;13.782;2022-10-16T00:54:00;3.75;;;2.10;;
45490;SDS011;31237;45.586;13.782;2022-10-16T00:56:29;0.90;;;0.88;;
45490;SDS011;31237;45.586;13.782;2022-10-16T00:58:54;1.67;;;1.58;;
45490;SDS011;31237;45.586;13.782;2022-10-16T01:01:20;1.95;;;1.83;;
45490;SDS011;31237;45.586;13.782;2022-10-16T01:03:46;1.55;;;1.45;;
45490;SDS011;31237;45.586;13.782;2022-10-16T01:06:18;1.23;;;1.23;;
45490;SDS011;31237;45.586;13.782;2022-10-16T01:11:48;1.50;;;1.40;;
45490;SDS011;31237;45.586;13.782;2022-10-16T01:14:29;1.73;;;1.63;;
45490;SDS011;31237;45.586;13.782;2022-10-16T01:17:06;2.50;;;2.30;;
45490;SDS011;31237;45.586;13.782;2022-10-16T01:24:49;2.13;;;1.98;;
45490;SDS011;31237;45.586;13.782;2022-10-16T01:30:10;1.17;;;1.10;;
45490;SDS011;31237;45.586;13.782;2022-10-16T01:32:52;2.38;;;1.52;;
45490;SDS011;31237;45.586;13.782;2022-10-16T01:35:22;3.28;;;2.38;;
45490;SDS011;31237;45.586;13.782;2022-10-16T01:40:28;1.52;;;1.42;;
45490;SDS011;31237;45.586;13.782;2022-10-16T01:43:08;1.85;;;1.73;;
45490;SDS011;31237;45.586;13.782;2022-10-16T01:45:47;1.60;;;1.50;;
45490;SDS011;31237;45.586;13.782;2022-10-16T01:48:16;2.22;;;2.03;;
45490;SDS011;31237;45.586;13.782;2022-10-16T01:50:44;2.05;;;1.77;;
45490;SDS011;31237;45.586;13.782;2022-10-16T01:53:46;2.78;;;2.33;;
45490;SDS011;31237;45.586;13.782;2022-10-16T01:56:15;3.53;;;1.98;;
45490;SDS011;31237;45.586;13.782;2022-10-16T01:58:45;2.08;;;1.42;;
45490;SDS011;31237;45.586;13.782;2022-10-16T02:01:18;3.50;;;1.88;;
45490;SDS011;31237;45.586;13.782;2022-10-16T02:03:48;0.95;;;0.95;;
45490;SDS011;31237;45.586;13.782;2022-10-16T02:06:18;1.77;;;1.63;;
45490;SDS011;31237;45.586;13.782;2022-10-16T02:08:45;1.83;;;1.70;;
45490;SDS011;31237;45.586;13.782;2022-10-16T02:11:11;1.65;;;1.52;;
45490;SDS011;31237;45.586;13.782;2022-10-16T02:13:48;2.50;;;2.05;;
45490;SDS011;31237;45.586;13.782;2022-10-16T02:16:19;1.95;;;1.85;;
45490;SDS011;31237;45.586;13.782;2022-10-16T02:18:45;1.27;;;1.17;;
45490;SDS011;31237;45.586;13.782;2022-10-16T02:21:31;1.52;;;1.42;;
45490;SDS011;31237;45.586;13.782;2022-10-16T02:26:31;1.95;;;1.73;;
45490;SDS011;31237;45.586;13.782;2022-10-16T02:29:04;9.20;;;2.28;;
45490;SDS011;31237;45.586;13.782;2022-10-16T02:31:35;5.22;;;2.38;;
45490;SDS011;31237;45.586;13.782;2022-10-16T02:34:08;14.37;;;4.20;;
45490;SDS011;31237;45.586;13.782;2022-10-16T02:36:37;1.55;;;1.45;;
45490;SDS011;31237;45.586;13.782;2022-10-16T02:39:04;2.85;;;2.42;;
45490;SDS011;31237;45.586;13.782;2022-10-16T02:41:30;2.90;;;2.47;;
45490;SDS011;31237;45.586;13.782;2022-10-16T02:43:56;2.70;;;2.15;;
45490;SDS011;31237;45.586;13.782;2022-10-16T02:46:22;2.25;;;1.75;;
45490;SDS011;31237;45.586;13.782;2022-10-16T02:48:48;2.53;;;1.60;;
45490;SDS011;31237;45.586;13.782;2022-10-16T02:51:13;1.73;;;1.63;;
45490;SDS011;31237;45.586;13.782;2022-10-16T02:53:39;1.98;;;1.77;;
45490;SDS011;31237;45.586;13.782;2022-10-16T02:56:05;1.15;;;1.10;;
45490;SDS011;31237;45.586;13.782;2022-10-16T02:58:31;1.52;;;1.42;;
45490;SDS011;31237;45.586;13.782;2022-10-16T03:00:57;2.45;;;2.22;;
45490;SDS011;31237;45.586;13.782;2022-10-16T03:03:22;2.05;;;1.60;;
45490;SDS011;31237;45.586;13.782;2022-10-16T03:05:48;5.85;;;3.35;;
45490;SDS011;31237;45.586;13.782;2022-10-16T03:08:14;2.25;;;2.05;;
45490;SDS011;31237;45.586;13.782;2022-10-16T03:10:41;2.20;;;1.95;;
45490;SDS011;31237;45.586;13.782;2022-10-16T03:13:08;1.23;;;1.15;;
45490;SDS011;31237;45.586;13.782;2022-10-16T03:15:34;5.00;;;3.08;;
45490;SDS011;31237;45.586;13.782;2022-10-16T03:18:00;2.80;;;2.58;;
45490;SDS011;31237;45.586;13.782;2022-10-16T03:20:26;2.15;;;1.90;;
45490;SDS011;31237;45.586;13.782;2022-10-16T03:22:52;3.75;;;2.42;;
45490;SDS011;31237;45.586;13.782;2022-10-16T03:25:17;2.70;;;1.85;;
45490;SDS011;31237;45.586;13.782;2022-10-16T03:27:43;2.13;;;1.52;;
45490;SDS011;31237;45.586;13.782;2022-10-16T03:30:09;2.50;;;1.95;;
45490;SDS011;31237;45.586;13.782;2022-10-16T03:32:35;2.38;;;2.17;;
45490;SDS011;31237;45.586;13.782;2022-10-16T03:35:01;1.05;;;1.05;;
45490;SDS011;31237;45.586;13.782;2022-10-16T03:37:27;2.28;;;2.08;;
45490;SDS011;31237;45.586;13.782;2022-10-16T03:39:52;1.58;;;1.48;;
45490;SDS011;31237;45.586;13.782;2022-10-16T03:42:18;1.25;;;1.15;;
45490;SDS011;31237;45.586;13.782;2022-10-16T03:44:44;2.45;;;2.05;;
45490;SDS011;31237;45.586;13.782;2022-10-16T03:47:10;1.40;;;1.30;;
45490;SDS011;31237;45.586;13.782;2022-10-16T03:49:35;3.47;;;2.78;;
45490;SDS011;31237;45.586;13.782;2022-10-16T03:52:01;1.88;;;1.75;;
45490;SDS011;31237;45.586;13.782;2022-10-16T03:54:27;1.70;;;1.60;;
45490;SDS011;31237;45.586;13.782;2022-10-16T03:56:53;1.27;;;1.17;;
45490;SDS011;31237;45.586;13.782;2022-10-16T03:59:18;1.80;;;1.48;;
45490;SDS011;31237;45.586;13.782;2022-10-16T04:01:44;2.08;;;1.83;;
45490;SDS011;31237;45.586;13.782;2022-10-16T04:04:10;1.52;;;1.42;;
45490;SDS011;31237;45.586;13.782;2022-10-16T04:06:35;2.95;;;2.17;;
45490;SDS011;31237;45.586;13.782;2022-10-16T04:09:01;1.70;;;1.60;;
45490;SDS011;31237;45.586;13.782;2022-10-16T04:11:27;1.65;;;1.55;;
45490;SDS011;31237;45.586;13.782;2022-10-16T04:13:53;4.38;;;2.00;;
45490;SDS011;31237;45.586;13.782;2022-10-16T04:16:19;3.05;;;2.08;;
45490;SDS011;31237;45.586;13.782;2022-10-16T04:18:45;2.22;;;1.77;;
45490;SDS011;31237;45.586;13.782;2022-10-16T04:21:10;2.45;;;2.25;;
45490;SDS011;31237;45.586;13.782;2022-10-16T04:23:36;1.65;;;1.55;;
45490;SDS011;31237;45.586;13.782;2022-10-16T04:26:02;1.85;;;1.75;;
45490;SDS011;31237;45.586;13.782;2022-10-16T04:28:28;1.75;;;1.65;;
45490;SDS011;31237;45.586;13.782;2022-10-16T04:30:53;1.58;;;1.48;;
45490;SDS011;31237;45.586;13.782;2022-10-16T04:33:19;1.35;;;1.25;;
45490;SDS011;31237;45.586;13.782;2022-10-16T04:35:45;1.92;;;1.73;;
45490;SDS011;31237;45.586;13.782;2022-10-16T04:38:10;1.55;;;1.45;;
45490;SDS011;31237;45.586;13.782;2022-10-16T04:40:36;4.47;;;2.33;;
45490;SDS011;31237;45.586;13.782;2022-10-16T04:43:02;1.48;;;1.38;;
45490;SDS011;31237;45.586;13.782;2022-10-16T04:45:29;4.38;;;1.77;;
45490;SDS011;31237;45.586;13.782;2022-10-16T04:47:59;3.33;;;1.65;;
45490;SDS011;31237;45.586;13.782;2022-10-16T04:50:25;2.03;;;1.92;;
45490;SDS011;31237;45.586;13.782;2022-10-16T04:52:51;1.85;;;1.42;;
45490;SDS011;31237;45.586;13.782;2022-10-16T04:55:17;1.40;;;1.30;;
45490;SDS011;31237;45.586;13.782;2022-10-16T04:57:42;4.55;;;1.30;;
45490;SDS011;31237;45.586;13.782;2022-10-16T05:00:08;1.30;;;1.23;;
45490;SDS011;31237;45.586;13.782;2022-10-16T05:02:34;1.50;;;1.40;;
45490;SDS011;31237;45.586;13.782;2022-10-16T05:05:00;1.38;;;1.25;;
45490;SDS011;31237;45.586;13.782;2022-10-16T05:07:26;1.67;;;1.58;;
45490;SDS011;31237;45.586;13.782;2022-10-16T05:09:51;3.00;;;1.77;;
45490;SDS011;31237;45.586;13.782;2022-10-16T05:12:18;1.90;;;1.80;;
45490;SDS011;31237;45.586;13.782;2022-10-16T05:14:43;1.35;;;1.25;;
45490;SDS011;31237;45.586;13.782;2022-10-16T05:17:09;1.90;;;1.77;;
45490;SDS011;31237;45.586;13.782;2022-10-16T05:19:35;0.85;;;0.85;;
45490;SDS011;31237;45.586;13.782;2022-10-16T05:22:01;1.52;;;1.42;;
45490;SDS011;31237;45.586;13.782;2022-10-16T05:24:26;2.15;;;1.95;;
45490;SDS011;31237;45.586;13.782;2022-10-16T05:26:52;1.95;;;1.77;;
45490;SDS011;31237;45.586;13.782;2022-10-16T05:29:18;1.30;;;1.15;;
45490;SDS011;31237;45.586;13.782;2022-10-16T05:31:44;1.40;;;1.30;;
45490;SDS011;31237;45.586;13.782;2022-10-16T05:34:10;2.15;;;1.95;;
45490;SDS011;31237;45.586;13.782;2022-10-16T05:36:36;5.80;;;1.98;;
45490;SDS011;31237;45.586;13.782;2022-10-16T05:39:02;1.60;;;1.50;;
45490;SDS011;31237;45.586;13.782;2022-10-16T05:41:28;0.70;;;0.70;;
45490;SDS011;31237;45.586;13.782;2022-10-16T05:43:53;1.73;;;1.45;;
45490;SDS011;31237;45.586;13.782;2022-10-16T05:46:19;5.85;;;1.77;;
45490;SDS011;31237;45.586;13.782;2022-10-16T05:48:45;1.45;;;1.35;;
45490;SDS011;31237;45.586;13.782;2022-10-16T05:51:12;1.48;;;1.38;;
45490;SDS011;31237;45.586;13.782;2022-10-16T05:53:40;3.03;;;1.35;;
45490;SDS011;31237;45.586;13.782;2022-10-16T05:56:09;1.60;;;1.17;;
45490;SDS011;31237;45.586;13.782;2022-10-16T05:58:37;2.95;;;2.67;;
45490;SDS011;31237;45.586;13.782;2022-10-16T06:01:07;2.72;;;2.13;;
45490;SDS011;31237;45.586;13.782;2022-10-16T06:03:35;1.17;;;1.15;;
45490;SDS011;31237;45.586;13.782;2022-10-16T06:06:12;2.03;;;1.83;;
45490;SDS011;31237;45.586;13.782;2022-10-16T06:08:38;4.03;;;1.73;;
45490;SDS011;31237;45.586;13.782;2022-10-16T06:11:05;2.08;;;1.98;;
45490;SDS011;31237;45.586;13.782;2022-10-16T06:13:33;2.38;;;2.15;;
45490;SDS011;31237;45.586;13.782;2022-10-16T06:15:59;2.38;;;1.90;;
45490;SDS011;31237;45.586;13.782;2022-10-16T06:18:27;2.00;;;1.88;;
45490;SDS011;31237;45.586;13.782;2022-10-16T06:20:54;2.47;;;1.70;;
45490;SDS011;31237;45.586;13.782;2022-10-16T06:23:21;4.50;;;3.13;;
45490;SDS011;31237;45.586;13.782;2022-10-16T06:25:47;1.75;;;1.65;;
45490;SDS011;31237;45.586;13.782;2022-10-16T06:28:13;1.85;;;1.73;;
45490;SDS011;31237;45.586;13.782;2022-10-16T06:30:40;2.05;;;1.83;;
45490;SDS011;31237;45.586;13.782;2022-10-16T06:33:07;2.08;;;1.98;;
45490;SDS011;31237;45.586;13.782;2022-10-16T06:35:33;2.38;;;1.88;;
45490;SDS011;31237;45.586;13.782;2022-10-16T06:37:59;1.95;;;1.80;;
45490;SDS011;31237;45.586;13.782;2022-10-16T06:40:25;4.45;;;1.90;;
45490;SDS011;31237;45.586;13.782;2022-10-16T06:42:51;2.17;;;1.80;;
45490;SDS011;31237;45.586;13.782;2022-10-16T06:45:20;2.42;;;2.22;;
45490;SDS011;31237;45.586;13.782;2022-10-16T06:47:45;4.95;;;2.17;;
45490;SDS011;31237;45.586;13.782;2022-10-16T06:50:11;1.60;;;1.50;;
45490;SDS011;31237;45.586;13.782;2022-10-16T06:52:37;1.45;;;1.35;;
45490;SDS011;31237;45.586;13.782;2022-10-16T06:55:02;1.90;;;1.73;;
45490;SDS011;31237;45.586;13.782;2022-10-16T06:57:28;1.98;;;1.65;;
45490;SDS011;31237;45.586;13.782;2022-10-16T06:59:54;0.90;;;0.88;;
45490;SDS011;31237;45.586;13.782;2022-10-16T07:02:20;2.42;;;2.22;;
45490;SDS011;31237;45.586;13.782;2022-10-16T07:04:46;4.72;;;1.60;;
45490;SDS011;31237;45.586;13.782;2022-10-16T07:07:11;1.50;;;1.40;;
45490;SDS011;31237;45.586;13.782;2022-10-16T07:09:37;1.70;;;1.60;;
45490;SDS011;31237;45.586;13.782;2022-10-16T07:12:03;1.55;;;1.45;;
45490;SDS011;31237;45.586;13.782;2022-10-16T07:14:29;2.05;;;1.92;;
45490;SDS011;31237;45.586;13.782;2022-10-16T07:16:55;5.43;;;2.45;;
45490;SDS011;31237;45.586;13.782;2022-10-16T07:19:21;2.35;;;2.15;;
45490;SDS011;31237;45.586;13.782;2022-10-16T07:21:47;1.33;;;1.23;;
45490;SDS011;31237;45.586;13.782;2022-10-16T07:24:13;0.88;;;0.85;;
45490;SDS011;31237;45.586;13.782;2022-10-16T07:26:40;0.90;;;0.90;;
45490;SDS011;31237;45.586;13.782;2022-10-16T07:29:15;2.50;;;1.40;;
45490;SDS011;31237;45.586;13.782;2022-10-16T07:31:42;0.98;;;0.95;;
45490;SDS011;31237;45.586;13.782;2022-10-16T07:34:09;2.60;;;2.03;;
45490;SDS011;31237;45.586;13.782;2022-10-16T07:36:36;4.75;;;2.42;;
45490;SDS011;31237;45.586;13.782;2022-10-16T07:39:02;3.22;;;2.80;;
45490;SDS011;31237;45.586;13.782;2022-10-16T07:41:28;2.42;;;1.98;;
45490;SDS011;31237;45.586;13.782;2022-10-16T07:43:55;1.95;;;1.77;;
45490;SDS011;31237;45.586;13.782;2022-10-16T07:46:24;1.98;;;1.83;;
45490;SDS011;31237;45.586;13.782;2022-10-16T07:48:50;2.65;;;2.15;;
45490;SDS011;31237;45.586;13.782;2022-10-16T07:51:17;2.50;;;1.52;;
45490;SDS011;31237;45.586;13.782;2022-10-16T07:53:45;1.65;;;0.88;;
45490;SDS011;31237;45.586;13.782;2022-10-16T07:56:12;1.85;;;1.67;;
45490;SDS011;31237;45.586;13.782;2022-10-16T07:58:38;2.95;;;2.20;;
45490;SDS011;31237;45.586;13.782;2022-10-16T08:01:04;4.38;;;2.72;;
45490;SDS011;31237;45.586;13.782;2022-10-16T08:03:35;2.15;;;1.67;;
45490;SDS011;31237;45.586;13.782;2022-10-16T08:06:01;2.63;;;1.88;;
45490;SDS011;31237;45.586;13.782;2022-10-16T08:08:27;1.92;;;1.73;;
45490;SDS011;31237;45.586;13.782;2022-10-16T08:10:54;2.15;;;1.95;;
45490;SDS011;31237;45.586;13.782;2022-10-16T08:13:19;1.60;;;1.45;;
45490;SDS011;31237;45.586;13.782;2022-10-16T08:15:46;1.75;;;1.65;;
45490;SDS011;31237;45.586;13.782;2022-10-16T08:18:12;1.55;;;1.45;;
45490;SDS011;31237;45.586;13.782;2022-10-16T08:20:39;3.17;;;1.75;;
45490;SDS011;31237;45.586;13.782;2022-10-16T08:23:05;1.92;;;1.83;;
45490;SDS011;31237;45.586;13.782;2022-10-16T08:25:32;1.75;;;1.63;;
45490;SDS011;31237;45.586;13.782;2022-10-16T08:28:00;2.22;;;1.90;;
45490;SDS011;31237;45.586;13.782;2022-10-16T08:30:32;2.38;;;2.13;;
45490;SDS011;31237;45.586;13.782;2022-10-16T08:32:58;3.83;;;2.38;;
45490;SDS011;31237;45.586;13.782;2022-10-16T08:35:24;2.25;;;2.05;;
45490;SDS011;31237;45.586;13.782;2022-10-16T08:37:50;2.53;;;2.33;;
45490;SDS011;31237;45.586;13.782;2022-10-16T08:40:19;3.42;;;2.28;;
45490;SDS011;31237;45.586;13.782;2022-10-16T08:51:03;6.90;;;4.30;;
45490;SDS011;31237;45.586;13.782;2022-10-16T08:53:46;3.20;;;2.67;;
45490;SDS011;31237;45.586;13.782;2022-10-16T08:56:14;3.20;;;2.55;;
45490;SDS011;31237;45.586;13.782;2022-10-16T08:58:40;4.07;;;2.38;;
45490;SDS011;31237;45.586;13.782;2022-10-16T09:01:11;3.35;;;3.03;;
45490;SDS011;31237;45.586;13.782;2022-10-16T09:09:31;6.65;;;3.55;;
45490;SDS011;31237;45.586;13.782;2022-10-16T09:22:28;2.75;;;2.53;;
45490;SDS011;31237;45.586;13.782;2022-10-16T09:24:59;7.68;;;4.03;;
45490;SDS011;31237;45.586;13.782;2022-10-16T09:29:56;3.92;;;2.78;;
45490;SDS011;31237;45.586;13.782;2022-10-16T09:32:21;5.68;;;3.28;;
45490;SDS011;31237;45.586;13.782;2022-10-16T09:34:49;2.25;;;2.05;;
45490;SDS011;31237;45.586;13.782;2022-10-16T09:37:18;5.22;;;3.67;;
45490;SDS011;31237;45.586;13.782;2022-10-16T09:42:17;6.30;;;3.22;;
45490;SDS011;31237;45.586;13.782;2022-10-16T09:44:53;3.60;;;3.13;;
45490;SDS011;31237;45.586;13.782;2022-10-16T09:47:28;5.80;;;3.08;;
45490;SDS011;31237;45.586;13.782;2022-10-16T09:49:59;4.63;;;2.75;;
45490;SDS011;31237;45.586;13.782;2022-10-16T09:52:27;5.90;;;3.42;;
45490;SDS011;31237;45.586;13.782;2022-10-16T09:54:55;4.10;;;3.38;;
45490;SDS011;31237;45.586;13.782;2022-10-16T09:57:37;8.57;;;3.60;;
45490;SDS011;31237;45.586;13.782;2022-10-16T10:00:16;7.72;;;4.20;;
45490;SDS011;31237;45.586;13.782;2022-10-16T10:02:43;7.07;;;4.07;;
45490;SDS011;31237;45.586;13.782;2022-10-16T10:07:57;4.05;;;3.30;;
45490;SDS011;31237;45.586;13.782;2022-10-16T10:10:32;4.07;;;3.63;;
45490;SDS011;31237;45.586;13.782;2022-10-16T10:12:59;5.97;;;3.70;;
45490;SDS011;31237;45.586;13.782;2022-10-16T10:15:25;3.70;;;2.22;;
45490;SDS011;31237;45.586;13.782;2022-10-16T10:17:58;2.92;;;2.65;;
45490;SDS011;31237;45.586;13.782;2022-10-16T10:20:28;5.88;;;4.20;;
45490;SDS011;31237;45.586;13.782;2022-10-16T10:22:57;3.55;;;2.83;;
45490;SDS011;31237;45.586;13.782;2022-10-16T10:25:26;2.50;;;2.15;;
45490;SDS011;31237;45.586;13.782;2022-10-16T10:31:20;3.40;;;2.45;;
45490;SDS011;31237;45.586;13.782;2022-10-16T10:36:27;5.90;;;2.85;;
45490;SDS011;31237;45.586;13.782;2022-10-16T10:46:51;3.90;;;2.30;;
45490;SDS011;31237;45.586;13.782;2022-10-16T10:55:23;3.88;;;3.05;;
45490;SDS011;31237;45.586;13.782;2022-10-16T11:06:11;4.22;;;2.95;;
45490;SDS011;31237;45.586;13.782;2022-10-16T11:08:50;4.88;;;3.00;;
45490;SDS011;31237;45.586;13.782;2022-10-16T11:11:23;7.10;;;4.75;;
45490;SDS011;31237;45.586;13.782;2022-10-16T11:14:00;10.25;;;3.63;;
45490;SDS011;31237;45.586;13.782;2022-10-16T11:16:35;4.30;;;3.85;;
45490;SDS011;31237;45.586;13.782;2022-10-16T11:19:18;11.98;;;3.20;;
45490;SDS011;31237;45.586;13.782;2022-10-16T11:24:44;4.30;;;2.85;;
45490;SDS011;31237;45.586;13.782;2022-10-16T11:27:19;9.45;;;5.45;;
45490;SDS011;31237;45.586;13.782;2022-10-16T11:41:43;5.57;;;2.75;;
45490;SDS011;31237;45.586;13.782;2022-10-16T11:47:25;2.17;;;1.98;;
45490;SDS011;31237;45.586;13.782;2022-10-16T11:55:44;6.85;;;3.70;;
45490;SDS011;31237;45.586;13.782;2022-10-16T12:00:47;6.32;;;3.97;;
45490;SDS011;31237;45.586;13.782;2022-10-16T12:09:15;4.20;;;3.25;;
45490;SDS011;31237;45.586;13.782;2022-10-16T12:11:50;5.03;;;2.92;;
45490;SDS011;31237;45.586;13.782;2022-10-16T12:14:21;3.78;;;3.42;;
45490;SDS011;31237;45.586;13.782;2022-10-16T12:17:01;2.00;;;1.85;;
45490;SDS011;31237;45.586;13.782;2022-10-16T12:19:31;5.05;;;4.38;;
45490;SDS011;31237;45.586;13.782;2022-10-16T12:21:59;3.92;;;3.47;;
45490;SDS011;31237;45.586;13.782;2022-10-16T12:24:31;4.45;;;4.03;;
45490;SDS011;31237;45.586;13.782;2022-10-16T12:27:03;10.15;;;4.50;;
45490;SDS011;31237;45.586;13.782;2022-10-16T12:29:40;3.70;;;3.20;;
45490;SDS011;31237;45.586;13.782;2022-10-16T12:34:57;4.97;;;2.85;;
45490;SDS011;31237;45.586;13.782;2022-10-16T12:37:26;4.30;;;3.22;;
45490;SDS011;31237;45.586;13.782;2022-10-16T12:39:56;3.80;;;2.45;;
45490;SDS011;31237;45.586;13.782;2022-10-16T12:42:30;4.38;;;3.55;;
45490;SDS011;31237;45.586;13.782;2022-10-16T12:44:59;5.20;;;3.20;;
45490;SDS011;31237;45.586;13.782;2022-10-16T12:49:57;4.40;;;3.42;;
45490;SDS011;31237;45.586;13.782;2022-10-16T12:52:27;4.45;;;4.05;;
45490;SDS011;31237;45.586;13.782;2022-10-16T12:55:02;4.60;;;3.88;;
45490;SDS011;31237;45.586;13.782;2022-10-16T13:00:26;4.50;;;3.97;;
45490;SDS011;31237;45.586;13.782;2022-10-16T13:19:33;4.95;;;3.60;;
45490;SDS011;31237;45.586;13.782;2022-10-16T13:22:24;4.93;;;4.38;;
45490;SDS011;31237;45.586;13.782;2022-10-16T13:30:29;8.82;;;5.13;;
45490;SDS011;31237;45.586;13.782;2022-10-16T13:33:07;6.65;;;4.78;;
45490;SDS011;31237;45.586;13.782;2022-10-16T13:35:51;8.63;;;3.42;;
45490;SDS011;31237;45.586;13.782;2022-10-16T13:38:19;4.97;;;4.40;;
45490;SDS011;31237;45.586;13.782;2022-10-16T13:43:36;4.95;;;3.13;;
45490;SDS011;31237;45.586;13.782;2022-10-16T13:46:06;7.97;;;5.05;;
45490;SDS011;31237;45.586;13.782;2022-10-16T13:48:37;3.38;;;2.72;;
45490;SDS011;31237;45.586;13.782;2022-10-16T13:51:04;6.35;;;4.60;;
45490;SDS011;31237;45.586;13.782;2022-10-16T13:53:35;3.67;;;3.13;;
45490;SDS011;31237;45.586;13.782;2022-10-16T13:56:02;7.88;;;4.10;;
45490;SDS011;31237;45.586;13.782;2022-10-16T13:58:30;6.20;;;4.18;;
45490;SDS011;31237;45.586;13.782;2022-10-16T14:00:58;5.03;;;4.25;;
45490;SDS011;31237;45.586;13.782;2022-10-16T14:03:44;3.05;;;2.63;;
45490;SDS011;31237;45.586;13.782;2022-10-16T14:06:30;7.05;;;4.68;;
45490;SDS011;31237;45.586;13.782;2022-10-16T14:11:32;5.35;;;3.22;;
45490;SDS011;31237;45.586;13.782;2022-10-16T14:14:01;4.80;;;3.55;;
45490;SDS011;31237;45.586;13.782;2022-10-16T14:16:29;7.72;;;5.57;;
45490;SDS011;31237;45.586;13.782;2022-10-16T14:19:00;2.85;;;2.45;;
45490;SDS011;31237;45.586;13.782;2022-10-16T14:21:28;8.05;;;3.90;;
45490;SDS011;31237;45.586;13.782;2022-10-16T14:23:55;5.45;;;3.92;;
45490;SDS011;31237;45.586;13.782;2022-10-16T14:26:26;4.80;;;3.40;;
45490;SDS011;31237;45.586;13.782;2022-10-16T14:31:42;2.33;;;2.13;;
45490;SDS011;31237;45.586;13.782;2022-10-16T14:34:22;3.65;;;3.35;;
45490;SDS011;31237;45.586;13.782;2022-10-16T14:37:06;2.92;;;2.60;;
45490;SDS011;31237;45.586;13.782;2022-10-16T14:39:50;2.78;;;2.17;;
45490;SDS011;31237;45.586;13.782;2022-10-16T14:42:17;4.45;;;4.05;;
45490;SDS011;31237;45.586;13.782;2022-10-16T14:44:45;2.47;;;2.03;;
45490;SDS011;31237;45.586;13.782;2022-10-16T14:47:13;3.13;;;2.22;;
45490;SDS011;31237;45.586;13.782;2022-10-16T14:49:42;3.50;;;2.55;;
45490;SDS011;31237;45.586;13.782;2022-10-16T14:52:08;2.35;;;2.15;;
45490;SDS011;31237;45.586;13.782;2022-10-16T14:54:37;1.80;;;1.58;;
45490;SDS011;31237;45.586;13.782;2022-10-16T14:57:02;6.68;;;3.90;;
45490;SDS011;31237;45.586;13.782;2022-10-16T14:59:33;1.35;;;1.15;;
45490;SDS011;31237;45.586;13.782;2022-10-16T15:02:02;2.63;;;2.40;;
45490;SDS011;31237;45.586;13.782;2022-10-16T15:05:04;3.35;;;2.28;;
45490;SDS011;31237;45.586;13.782;2022-10-16T15:07:46;3.83;;;2.33;;
45490;SDS011;31237;45.586;13.782;2022-10-16T15:10:12;1.55;;;1.42;;
45490;SDS011;31237;45.586;13.782;2022-10-16T15:12:39;2.63;;;2.10;;
45490;SDS011;31237;45.586;13.782;2022-10-16T15:17:41;1.17;;;1.08;;
45490;SDS011;31237;45.586;13.782;2022-10-16T15:20:07;2.80;;;1.67;;
45490;SDS011;31237;45.586;13.782;2022-10-16T15:22:33;0.95;;;0.95;;
45490;SDS011;31237;45.586;13.782;2022-10-16T15:24:59;1.08;;;1.05;;
45490;SDS011;31237;45.586;13.782;2022-10-16T15:27:25;2.67;;;1.65;;
45490;SDS011;31237;45.586;13.782;2022-10-16T15:29:50;2.40;;;2.00;;
45490;SDS011;31237;45.586;13.782;2022-10-16T15:32:16;1.67;;;1.50;;
45490;SDS011;31237;45.586;13.782;2022-10-16T15:34:42;2.33;;;1.35;;
45490;SDS011;31237;45.586;13.782;2022-10-16T15:37:08;3.22;;;2.33;;
45490;SDS011;31237;45.586;13.782;2022-10-16T15:39:34;1.60;;;1.50;;
45490;SDS011;31237;45.586;13.782;2022-10-16T15:41:59;1.83;;;1.73;;
45490;SDS011;31237;45.586;13.782;2022-10-16T15:44:25;1.92;;;1.65;;
45490;SDS011;31237;45.586;13.782;2022-10-16T15:46:55;1.02;;;1.02;;
45490;SDS011;31237;45.586;13.782;2022-10-16T15:49:21;1.58;;;1.48;;
45490;SDS011;31237;45.586;13.782;2022-10-16T15:51:47;0.80;;;0.80;;
45490;SDS011;31237;45.586;13.782;2022-10-16T15:54:12;1.35;;;1.25;;
45490;SDS011;31237;45.586;13.782;2022-10-16T15:56:38;2.92;;;2.03;;
45490;SDS011;31237;45.586;13.782;2022-10-16T15:59:04;1.35;;;1.25;;
45490;SDS011;31237;45.586;13.782;2022-10-16T16:01:34;0.93;;;0.93;;
45490;SDS011;31237;45.586;13.782;2022-10-16T16:04:00;2.22;;;2.03;;
45490;SDS011;31237;45.586;13.782;2022-10-16T16:06:26;1.10;;;1.05;;
45490;SDS011;31237;45.586;13.782;2022-10-16T16:08:52;1.35;;;1.25;;
45490;SDS011;31237;45.586;13.782;2022-10-16T16:11:18;1.25;;;1.15;;
45490;SDS011;31237;45.586;13.782;2022-10-16T16:13:45;1.52;;;1.42;;
45490;SDS011;31237;45.586;13.782;2022-10-16T16:16:12;1.08;;;1.08;;
45490;SDS011;31237;45.586;13.782;2022-10-16T16:18:40;0.95;;;0.95;;
45490;SDS011;31237;45.586;13.782;2022-10-16T16:21:06;1.20;;;1.13;;
45490;SDS011;31237;45.586;13.782;2022-10-16T16:23:32;1.58;;;1.48;;
45490;SDS011;31237;45.586;13.782;2022-10-16T16:28:36;2.10;;;1.92;;
45490;SDS011;31237;45.586;13.782;2022-10-16T16:31:03;1.60;;;1.50;;
45490;SDS011;31237;45.586;13.782;2022-10-16T16:33:29;1.17;;;1.15;;
45490;SDS011;31237;45.586;13.782;2022-10-16T16:36:00;1.13;;;1.08;;
45490;SDS011;31237;45.586;13.782;2022-10-16T16:38:28;1.67;;;1.58;;
45490;SDS011;31237;45.586;13.782;2022-10-16T16:40:54;1.10;;;1.05;;
45490;SDS011;31237;45.586;13.782;2022-10-16T16:43:24;1.83;;;1.63;;
45490;SDS011;31237;45.586;13.782;2022-10-16T16:45:51;1.70;;;1.35;;
45490;SDS011;31237;45.586;13.782;2022-10-16T16:48:18;0.90;;;0.90;;
45490;SDS011;31237;45.586;13.782;2022-10-16T16:50:45;2.05;;;1.73;;
45490;SDS011;31237;45.586;13.782;2022-10-16T16:53:10;1.73;;;1.25;;
45490;SDS011;31237;45.586;13.782;2022-10-16T16:55:36;0.90;;;0.90;;
45490;SDS011;31237;45.586;13.782;2022-10-16T16:58:02;2.08;;;1.55;;
45490;SDS011;31237;45.586;13.782;2022-10-16T17:00:28;2.60;;;1.25;;
45490;SDS011;31237;45.586;13.782;2022-10-16T17:02:56;1.60;;;1.38;;
45490;SDS011;31237;45.586;13.782;2022-10-16T17:05:22;3.65;;;1.90;;
45490;SDS011;31237;45.586;13.782;2022-10-16T17:07:48;2.30;;;1.40;;
45490;SDS011;31237;45.586;13.782;2022-10-16T17:10:13;1.60;;;1.25;;
45490;SDS011;31237;45.586;13.782;2022-10-16T17:12:40;1.77;;;1.65;;
45490;SDS011;31237;45.586;13.782;2022-10-16T17:15:06;1.30;;;1.23;;
45490;SDS011;31237;45.586;13.782;2022-10-16T17:17:32;0.75;;;0.75;;
45490;SDS011;31237;45.586;13.782;2022-10-16T17:19:57;1.52;;;1.42;;